Flight Track Log - Related Links

Times and Time Zones

All times are in EDT time to prevent confusion due to time zone crossing. See the LBQ792 flight status page for this flight to view local times or setup timezone preferences in your user account.

Time Position Orientation Groundspeed Altitude Reporting Facility
EDT Latitude Longitude Course Direction KTS MPH feet Rate Location/Type
Fri 10:00:41 PM 43.1403 -76.0856 341° North 176 203 2,200  Level Boston Center
Fri 10:01:41 PM 43.1897 -76.1083 341° North 200 230 3,800 1,587 Climbing Boston Center
Fri 10:02:42 PM 43.2022 -76.1689 286° West 175 201 5,400 1,328 Climbing Boston Center
Fri 10:03:43 PM 43.1997 -76.2428 267° West 188 216 6,500 541 Climbing Boston Center
Fri 10:04:44 PM 43.1908 -76.3250 262° West 237 273 6,500  Level Boston Center
Fri 10:05:50 PM 43.1833 -76.4214 264° West 240 276 6,500  Level Boston Center
Fri 10:06:57 PM 43.1756 -76.5261 264° West 240 276 6,500  Level Boston Center
Fri 10:07:51 PM 43.1706 -76.6028 265° West 241 277 6,500  Level Boston Center
Fri 10:08:52 PM 43.1669 -76.7022 267° West 244 281 6,500  Level Boston Center
Fri 10:09:13 PM 43.1653 -76.7317 266° West 243 280 6,500  Level Cleveland Center
Fri 10:10:14 PM 43.1600 -76.8261 266° West 243 280 6,500  Level Cleveland Center
Fri 10:11:15 PM 43.1547 -76.9231 266° West 244 281 6,500  Level Cleveland Center
Fri 10:12:15 PM 43.1408 -77.0122 258° West 240 276 6,500  Level Cleveland Center
Fri 10:13:16 PM 43.1206 -77.1017 253° West 242 278 6,500  Level Cleveland Center
Fri 10:14:16 PM 43.0983 -77.1911 251° West 245 282 6,500  Level Cleveland Center
Fri 10:15:17 PM 43.0778 -77.2775 252° West 244 281 6,500 -492 Level Cleveland Center
Fri 10:16:18 PM 43.0553 -77.3667 251° West 248 285 5,500 -1,252 Descending Cleveland Center
Fri 10:17:12 PM 43.0369 -77.4586 255° West 266 306 4,100 -1,461 Descending Cleveland Center
Fri 10:18:13 PM 43.0375 -77.5522 270° West 258 297 2,700 -992 Descending Cleveland Center
Fri 10:19:19 PM 43.0669 -77.6503 292° West 219 252 2,000 -567 Descending Cleveland Center
Fri 10:20:20 PM 43.1014 -77.6942 317° Northwest 163 188 1,500 -492 Descending Cleveland Center
Fri 10:22:00 PM 43.1167 -77.6667 36° Northeast  Level FlightAware Approximate
Fri 10:29:00 PM 43.1191 -77.6719 36° Northeast  Level Estimated

Login

Don't have an account? Register now (free) for customized features, flight alerts, and more!